Time;durP1;ratioP1;P1;durP2;ratioP2;P2;SDS_P1;SDS_P2;PMS_P1;PMS_P2;Temp;Humidity;BMP_temperature;BMP_pressure;BME280_temperature;BME280_humidity;BME280_pressure;Samples;Min_cycle;Max_cycle;Signal;HPM_P1;HPM_P2
2021/12/17 00:04:39;;;;;;;37.50;34.20;;;;;;;22.51;29.30;95716.66;5020333;28;102762;-49
2021/12/17 00:07:07;;;;;;;36.80;33.80;;;;;;;22.51;29.14;95725.44;5021179;28;102730;-49
2021/12/17 00:09:33;;;;;;;37.77;34.57;;;;;;;22.50;29.36;95726.47;5019966;28;102747;-49
2021/12/17 00:11:58;;;;;;;39.20;35.93;;;;;;;22.50;29.03;95723.81;5008744;28;102826;-49
2021/12/17 00:14:27;;;;;;;37.73;34.60;;;;;;;22.48;29.02;95723.31;5001980;28;102760;-49
2021/12/17 00:16:55;;;;;;;37.30;34.20;;;;;;;22.48;29.13;95727.84;5001094;28;103156;-49
2021/12/17 00:20:04;;;;;;;35.87;32.90;;;;;;;22.46;29.32;95722.00;5000428;28;103720;-49
2021/12/17 00:49:19;;;;;;;34.37;31.47;;;;;;;22.45;29.13;95725.75;5013508;28;102910;-50
2021/12/17 00:54:29;;;;;;;34.30;31.40;;;;;;;22.45;28.83;95728.41;5012278;28;103269;-49
2021/12/17 00:56:56;;;;;;;33.33;30.57;;;;;;;22.45;29.08;95729.22;5012285;28;102795;-50
2021/12/17 00:59:23;;;;;;;36.17;33.17;;;;;;;22.45;28.89;95731.09;5020953;28;102782;-49
2021/12/17 01:01:51;;;;;;;36.10;32.90;;;;;;;22.43;28.87;95728.72;5001832;28;103249;-49
2021/12/17 01:04:17;;;;;;;31.90;29.40;;;;;;;22.44;28.79;95732.16;5014682;28;103725;-49
2021/12/17 01:06:43;;;;;;;34.53;31.73;;;;;;;22.40;29.02;95709.84;5000882;28;103014;-49
2021/12/17 01:09:16;;;;;;;33.13;30.43;;;;;;;22.42;29.06;95711.16;5015618;27;102827;-49
2021/12/17 01:11:42;;;;;;;33.60;30.80;;;;;;;22.41;29.23;95706.09;5002163;28;103555;-49
2021/12/17 01:14:08;;;;;;;36.20;33.10;;;;;;;22.43;29.07;95704.75;5011852;28;102798;-49
2021/12/17 01:16:34;;;;;;;35.40;32.50;;;;;;;22.41;29.10;95701.56;5018687;28;102572;-49
2021/12/17 01:19:17;;;;;;;34.53;31.73;;;;;;;22.41;28.83;95701.56;5005353;28;103598;-50
2021/12/17 01:24:56;;;;;;;35.87;32.97;;;;;;;22.40;28.98;95710.66;5012597;28;102804;-50
2021/12/17 01:41:26;;;;;;;37.80;34.53;;;;;;;22.43;29.01;95690.63;5011597;28;103364;-49
2021/12/17 01:43:54;;;;;;;33.97;31.13;;;;;;;22.41;28.85;95679.47;5000350;28;102768;-49
2021/12/17 01:46:26;;;;;;;35.30;32.40;;;;;;;22.42;29.13;95676.53;5001648;28;102841;-49
2021/12/17 01:49:05;;;;;;;36.57;33.50;;;;;;;22.41;28.92;95663.50;4999669;28;102893;-50
2021/12/17 01:59:22;;;;;;;36.87;33.57;;;;;;;22.40;28.70;95667.25;4999547;28;102936;-49
2021/12/17 01:59:48;;;;;;;37.50;34.30;;;;;;;22.40;28.72;95670.72;4999568;28;102774;-49
2021/12/17 02:02:14;;;;;;;35.23;32.23;;;;;;;22.39;28.55;95674.44;4994090;28;102814;-50
2021/12/17 02:04:41;;;;;;;35.07;32.17;;;;;;;22.37;28.95;95684.59;5013982;28;103175;-49
2021/12/17 02:07:06;;;;;;;37.53;34.33;;;;;;;22.38;28.62;95670.19;5019174;28;103761;-49
2021/12/17 02:28:48;;;;;;;40.13;36.63;;;;;;;22.38;28.51;95675.53;5007468;28;103331;-49
2021/12/17 02:33:40;;;;;;;40.87;37.47;;;;;;;22.35;28.84;95665.44;5007034;28;102847;-50
2021/12/17 02:36:06;;;;;;;39.37;36.03;;;;;;;22.38;28.51;95664.09;5013435;28;102812;-49
2021/12/17 02:38:40;;;;;;;39.97;36.77;;;;;;;22.35;28.90;95660.13;5018884;28;102856;-49
2021/12/17 02:46:37;;;;;;;40.03;36.73;;;;;;;22.35;28.73;95665.44;5012667;28;103379;-50
2021/12/17 02:49:02;;;;;;;37.77;34.57;;;;;;;22.36;28.57;95666.25;5018829;28;102658;-50
2021/12/17 02:51:28;;;;;;;38.73;35.43;;;;;;;22.35;28.75;95662.78;5018105;28;102639;-50
2021/12/17 02:53:55;;;;;;;38.63;35.27;;;;;;;22.36;28.57;95664.38;5008907;28;103431;-49
2021/12/17 02:56:21;;;;;;;39.27;36.03;;;;;;;22.35;28.96;95665.44;4999123;28;103278;-49
2021/12/17 02:58:47;;;;;;;36.97;34.03;;;;;;;22.36;28.76;95660.91;4992210;28;103491;-49
2021/12/17 03:01:14;;;;;;;34.87;31.73;;;;;;;22.35;28.85;95659.34;5005823;28;102994;-48
2021/12/17 03:03:40;;;;;;;32.73;30.13;;;;;;;22.47;28.41;95667.69;5010641;28;103009;-48
2021/12/17 03:06:06;;;;;;;30.37;27.87;;;;;;;22.56;28.12;95670.50;4980149;28;102648;-48
2021/12/17 03:08:33;;;;;;;31.20;28.67;;;;;;;22.61;28.16;95665.09;4993148;28;102725;-48
2021/12/17 03:11:00;;;;;;;31.30;28.73;;;;;;;22.62;27.94;95667.47;5000836;28;102672;-48
2021/12/17 03:13:27;;;;;;;28.97;26.57;;;;;;;22.64;27.79;95667.97;5007406;28;102761;-48
2021/12/17 03:15:58;;;;;;;28.60;26.30;;;;;;;22.67;27.80;95663.94;5017172;28;102489;-48
2021/12/17 03:23:40;;;;;;;26.57;24.37;;;;;;;22.66;27.95;95657.84;5006566;28;102867;-48
2021/12/17 03:26:10;;;;;;;26.60;24.40;;;;;;;22.71;27.96;95665.78;5015918;28;103357;-48
2021/12/17 03:28:38;;;;;;;27.13;24.90;;;;;;;22.71;28.05;95663.09;5006472;28;102775;-48
2021/12/17 03:31:04;;;;;;;25.80;23.80;;;;;;;22.73;28.04;95655.63;5001826;27;102885;-48
2021/12/17 03:33:30;;;;;;;24.93;22.90;;;;;;;22.75;27.77;95652.66;4998478;28;103059;-48
2021/12/17 03:35:57;;;;;;;24.30;22.37;;;;;;;22.76;27.74;95654.25;5003030;28;103688;-48
2021/12/17 03:38:24;;;;;;;23.70;21.90;;;;;;;22.77;27.77;95658.50;5001250;28;103360;-48
2021/12/17 03:40:58;;;;;;;22.17;20.37;;;;;;;22.75;27.54;95656.13;5000487;28;102801;-48
2021/12/17 03:43:30;;;;;;;22.60;20.80;;;;;;;22.80;27.77;95644.59;5007515;28;102914;-48
2021/12/17 03:45:55;;;;;;;21.87;20.17;;;;;;;22.80;27.60;95653.38;5014557;28;102758;-48
2021/12/17 03:48:21;;;;;;;22.20;20.43;;;;;;;22.83;27.86;95651.25;5002695;28;103167;-48
2021/12/17 03:50:46;;;;;;;21.40;19.63;;;;;;;22.80;27.78;95641.94;5006352;28;102825;-48
2021/12/17 03:53:12;;;;;;;21.00;19.30;;;;;;;22.85;27.83;95644.56;4996098;28;102894;-48
2021/12/17 03:55:37;;;;;;;20.60;19.00;;;;;;;22.84;27.68;95648.28;5016907;28;103048;-48
2021/12/17 03:58:03;;;;;;;20.20;18.60;;;;;;;22.84;27.70;95645.63;5013160;28;102604;-48
2021/12/17 04:00:29;;;;;;;19.10;17.50;;;;;;;22.88;27.77;95643.97;5011637;28;102816;-48
2021/12/17 04:02:55;;;;;;;20.13;18.53;;;;;;;22.86;28.23;95640.03;5020537;28;102859;-48
2021/12/17 04:05:21;;;;;;;19.53;17.83;;;;;;;22.88;27.97;95636.00;5002019;28;102834;-48
2021/12/17 04:07:46;;;;;;;18.90;17.30;;;;;;;22.91;27.99;95635.41;5000015;28;103198;-48
2021/12/17 04:10:12;;;;;;;18.10;16.70;;;;;;;22.95;27.66;95631.06;5000849;28;102811;-48
2021/12/17 04:15:34;;;;;;;17.57;16.23;;;;;;;23.00;28.08;95630.19;5006375;28;102930;-48
2021/12/17 04:18:01;;;;;;;18.43;16.83;;;;;;;22.86;28.18;95632.03;5012452;28;102934;-47
2021/12/17 04:20:26;;;;;;;16.00;14.70;;;;;;;22.71;28.69;95625.03;5005139;28;102760;-47
2021/12/17 04:22:52;;;;;;;13.10;12.10;;;;;;;22.66;28.68;95627.75;5021258;28;103281;-47
2021/12/17 04:25:18;;;;;;;12.30;11.20;;;;;;;22.62;28.92;95621.41;4995995;28;103721;-47
2021/12/17 04:27:43;;;;;;;13.67;12.57;;;;;;;22.59;28.29;95614.00;4991944;28;103345;-47
2021/12/17 04:30:09;;;;;;;12.27;11.27;;;;;;;22.55;28.46;95605.03;5011202;28;103009;-47
2021/12/17 04:32:35;;;;;;;11.83;10.63;;;;;;;22.68;29.55;95609.63;5011846;28;103351;-47
2021/12/17 04:35:00;;;;;;;12.00;11.00;;;;;;;22.69;28.68;95596.03;4999140;28;103370;-48
2021/12/17 04:37:26;;;;;;;10.83;10.03;;;;;;;22.70;28.98;95594.16;5007986;28;102892;-47
2021/12/17 04:39:52;;;;;;;11.70;10.80;;;;;;;22.70;29.50;95586.16;5012562;28;102890;-47
2021/12/17 04:42:31;;;;;;;10.40;9.40;;;;;;;22.59;29.54;95596.16;4995997;28;102702;-47
2021/12/17 04:44:58;;;;;;;7.97;7.37;;;;;;;22.50;28.96;95592.53;4994664;28;102977;-48
2021/12/17 04:58:20;;;;;;;6.90;6.20;;;;;;;22.10;28.33;95586.69;5010860;28;102866;-47
2021/12/17 05:00:46;;;;;;;6.03;5.53;;;;;;;22.17;28.57;95589.00;4999334;28;103541;-47
2021/12/17 05:03:11;;;;;;;6.30;5.67;;;;;;;22.23;28.45;95582.56;4999124;28;102837;-47
2021/12/17 05:05:37;;;;;;;6.23;5.73;;;;;;;22.24;28.29;95592.13;4994422;28;103137;-47
2021/12/17 05:08:08;;;;;;;5.80;5.40;;;;;;;22.27;28.03;95591.53;4999317;28;103350;-47
2021/12/17 05:21:22;;;;;;;5.27;4.87;;;;;;;22.65;28.84;95587.00;4993350;28;102885;-48
2021/12/17 05:23:51;;;;;;;6.00;5.50;;;;;;;22.70;29.12;95584.28;5000144;28;102810;-49
2021/12/17 05:26:18;;;;;;;5.77;5.27;;;;;;;22.62;28.95;95589.47;5009131;28;103417;-49
2021/12/17 05:28:44;;;;;;;5.97;5.43;;;;;;;22.49;29.31;95591.75;5018400;28;102756;-49
2021/12/17 05:31:10;;;;;;;6.30;5.80;;;;;;;22.46;29.47;95587.00;5016594;28;102878;-49
2021/12/17 05:33:36;;;;;;;5.10;4.70;;;;;;;22.44;29.35;95583.06;4999436;28;102781;-49
2021/12/17 05:36:01;;;;;;;5.80;5.30;;;;;;;22.40;29.34;95582.84;5019634;28;102747;-49
2021/12/17 05:38:28;;;;;;;6.97;6.37;;;;;;;22.41;29.69;95589.75;5019821;28;102721;-49
2021/12/17 05:40:54;;;;;;;6.43;6.03;;;;;;;22.37;29.55;95578.09;5019253;28;102825;-49
2021/12/17 05:43:20;;;;;;;6.80;6.10;;;;;;;22.39;29.37;95583.94;5014053;28;103956;-49
2021/12/17 05:46:07;;;;;;;5.97;5.47;;;;;;;22.39;29.47;95577.81;5018429;28;103266;-49
2021/12/17 05:48:33;;;;;;;6.00;5.60;;;;;;;22.51;29.29;95580.84;5018932;28;102791;-48
2021/12/17 05:51:01;;;;;;;5.63;5.20;;;;;;;22.59;29.05;95582.84;5019434;28;102942;-47
2021/12/17 05:53:28;;;;;;;5.93;5.33;;;;;;;22.66;29.06;95564.59;5015155;28;102751;-48
2021/12/17 05:55:55;;;;;;;5.10;4.70;;;;;;;22.74;28.92;95568.50;5017601;27;102751;-48
2021/12/17 05:58:21;;;;;;;5.70;5.30;;;;;;;22.75;28.80;95578.06;5019107;28;103890;-48
2021/12/17 06:00:47;;;;;;;5.40;4.90;;;;;;;22.80;28.83;95580.66;5019722;28;103291;-48
2021/12/17 06:03:13;;;;;;;5.30;4.90;;;;;;;22.80;28.72;95576.13;5018983;28;102870;-48
2021/12/17 06:05:39;;;;;;;5.30;4.57;;;;;;;22.81;28.99;95575.03;5012944;28;103325;-48
2021/12/17 06:08:05;;;;;;;5.33;4.93;;;;;;;22.84;28.79;95592.34;5019551;28;103090;-48
2021/12/17 06:10:31;;;;;;;5.50;5.03;;;;;;;22.86;28.74;95586.75;5019275;28;102868;-48
2021/12/17 06:12:56;;;;;;;5.70;5.30;;;;;;;22.87;28.73;95596.31;5019137;28;102774;-48
2021/12/17 06:15:22;;;;;;;5.20;4.80;;;;;;;22.88;28.75;95589.91;5013249;28;102672;-48
2021/12/17 06:17:50;;;;;;;5.50;5.10;;;;;;;22.89;28.56;95602.94;5018296;28;102868;-48
2021/12/17 06:20:17;;;;;;;5.13;4.73;;;;;;;22.89;28.90;95605.59;5018068;28;102619;-48
2021/12/17 06:22:43;;;;;;;5.43;5.03;;;;;;;22.86;28.17;95605.41;5019348;28;102791;-48
2021/12/17 06:25:10;;;;;;;5.20;4.80;;;;;;;22.87;28.74;95610.44;5019069;28;103855;-48
2021/12/17 06:27:36;;;;;;;5.30;4.90;;;;;;;22.88;28.69;95598.69;5013335;28;104584;-48
2021/12/17 06:30:04;;;;;;;5.10;4.70;;;;;;;22.93;28.74;95611.94;5018727;28;103204;-48
2021/12/17 06:32:30;;;;;;;5.23;4.73;;;;;;;22.91;28.23;95591.97;5018376;28;102907;-48
2021/12/17 06:34:55;;;;;;;5.57;5.13;;;;;;;22.83;28.36;95574.78;5018491;28;102528;-48
2021/12/17 06:37:21;;;;;;;4.80;4.50;;;;;;;22.92;28.62;95583.69;5014405;28;102875;-48
2021/12/17 06:39:48;;;;;;;4.60;4.30;;;;;;;22.93;28.41;95590.59;5018088;28;102732;-48
2021/12/17 06:42:14;;;;;;;6.33;5.83;;;;;;;22.88;28.78;95587.25;5018433;28;102879;-48
2021/12/17 06:44:41;;;;;;;6.37;5.93;;;;;;;22.76;28.98;95584.97;5018715;28;102926;-48
2021/12/17 07:00:21;;;;;;;6.77;6.27;;;;;;;22.89;28.82;95588.81;5012790;28;102700;-48
2021/12/17 07:10:47;;;;;;;6.33;5.83;;;;;;;22.92;28.87;95582.91;5013656;28;103328;-48
2021/12/17 07:21:28;;;;;;;5.17;4.80;;;;;;;22.97;28.73;95588.94;5020914;28;102906;-47
2021/12/17 07:32:31;;;;;;;4.90;4.60;;;;;;;22.97;28.52;95586.28;5022231;28;102809;-48
2021/12/17 07:39:50;;;;;;;4.90;4.50;;;;;;;22.99;28.53;95568.13;5021827;28;103301;-48
2021/12/17 07:42:16;;;;;;;5.00;4.70;;;;;;;22.98;28.32;95569.19;5021140;28;103443;-48
2021/12/17 07:44:41;;;;;;;4.93;4.53;;;;;;;22.99;28.53;95570.78;5016863;28;103336;-47
2021/12/17 07:47:07;;;;;;;5.03;4.67;;;;;;;22.96;28.40;95568.69;5021446;28;102923;-47
2021/12/17 07:49:32;;;;;;;4.87;4.57;;;;;;;23.00;28.52;95575.03;5016493;28;103813;-47
2021/12/17 07:51:58;;;;;;;5.50;5.10;;;;;;;23.00;28.36;95579.56;5001223;28;102845;-47
2021/12/17 07:54:23;;;;;;;4.93;4.53;;;;;;;23.00;28.52;95580.34;4998123;28;102645;-47
2021/12/17 07:56:49;;;;;;;4.50;4.20;;;;;;;22.99;28.29;95570.78;4998593;28;104338;-47
2021/12/17 07:59:14;;;;;;;4.10;3.80;;;;;;;23.00;28.64;95571.56;5000799;28;102709;-47
2021/12/17 08:01:40;;;;;;;4.90;4.53;;;;;;;22.99;28.25;95576.09;5001038;28;102676;-47
2021/12/17 08:04:07;;;;;;;4.10;3.80;;;;;;;22.97;28.61;95570.28;5000204;28;102863;-48
2021/12/17 08:06:34;;;;;;;5.07;4.67;;;;;;;22.98;28.69;95589.72;4995283;28;102826;-48
2021/12/17 08:09:00;;;;;;;4.17;3.77;;;;;;;23.00;28.26;95580.34;5000486;28;103476;-48
2021/12/17 08:11:26;;;;;;;4.53;4.23;;;;;;;22.98;28.56;95582.53;4999331;28;102829;-48
2021/12/17 08:13:55;;;;;;;4.17;3.87;;;;;;;23.00;28.47;95591.00;5000926;28;102636;-48
2021/12/17 08:31:34;;;;;;;4.13;3.83;;;;;;;23.03;28.34;95566.47;5000411;28;102739;-47
2021/12/17 08:34:02;;;;;;;4.10;3.80;;;;;;;23.01;28.41;95557.16;5000695;28;102912;-47
2021/12/17 08:36:28;;;;;;;3.97;3.67;;;;;;;23.03;28.52;95568.34;4998652;28;103565;-47
2021/12/17 08:38:54;;;;;;;4.17;3.87;;;;;;;23.02;28.40;95567.56;4995001;28;103381;-47
2021/12/17 08:41:21;;;;;;;4.03;3.73;;;;;;;23.04;28.35;95570.72;4999837;28;102667;-47
2021/12/17 08:43:47;;;;;;;4.43;4.03;;;;;;;23.04;28.17;95565.38;5000617;28;102475;-47
2021/12/17 08:46:12;;;;;;;5.30;3.80;;;;;;;23.05;28.43;95563.50;5000824;28;103378;-47
2021/12/17 08:48:38;;;;;;;4.00;3.70;;;;;;;23.05;28.44;95561.63;5000019;28;103467;-47
2021/12/17 08:51:06;;;;;;;4.30;4.00;;;;;;;23.05;28.16;95558.97;5011181;28;102935;-47
2021/12/17 08:53:32;;;;;;;4.20;3.90;;;;;;;23.05;28.61;95539.53;5020291;28;102735;-47
2021/12/17 08:55:58;;;;;;;3.60;3.30;;;;;;;23.06;28.40;95544.56;5019897;28;103151;-47
2021/12/17 08:58:24;;;;;;;4.10;3.80;;;;;;;23.04;28.10;95544.06;5020389;28;103449;-47
2021/12/17 09:00:49;;;;;;;3.60;3.40;;;;;;;23.06;28.63;95544.56;4996174;28;103844;-47
2021/12/17 09:03:15;;;;;;;3.30;3.10;;;;;;;23.03;28.45;95541.69;5018782;28;102823;-47
2021/12/17 09:05:44;;;;;;;4.00;3.70;;;;;;;23.06;28.26;95541.09;5020462;28;102679;-47
2021/12/17 09:08:11;;;;;;;3.70;3.50;;;;;;;23.06;28.57;95541.91;5019539;28;102885;-47
2021/12/17 09:10:37;;;;;;;3.67;3.47;;;;;;;23.06;28.21;95538.44;5019131;28;103185;-47
2021/12/17 09:13:05;;;;;;;3.80;3.50;;;;;;;23.06;28.24;95541.09;5014794;28;103898;-47
2021/12/17 09:15:31;;;;;;;3.70;3.50;;;;;;;23.01;28.28;95542.00;5019825;28;103324;-47
2021/12/17 09:17:57;;;;;;;4.30;4.00;;;;;;;23.04;28.26;95538.72;5019621;28;103325;-47
2021/12/17 09:20:23;;;;;;;4.20;3.90;;;;;;;23.06;28.43;95535.78;5019681;28;102837;-47
2021/12/17 09:22:48;;;;;;;3.77;3.47;;;;;;;23.07;28.35;95532.03;5014642;28;102901;-47
2021/12/17 09:25:14;;;;;;;3.60;3.40;;;;;;;23.07;28.60;95524.03;5018389;28;102772;-47
2021/12/17 09:27:41;;;;;;;3.67;3.47;;;;;;;23.07;28.20;95521.38;5018867;28;102823;-47
2021/12/17 09:30:10;;;;;;;3.30;3.10;;;;;;;23.06;28.65;95517.13;5019359;27;103941;-47
2021/12/17 09:32:37;;;;;;;4.00;3.70;;;;;;;23.08;28.39;95513.06;5018853;28;102796;-47
2021/12/17 09:35:03;;;;;;;3.90;3.60;;;;;;;23.07;28.35;95516.03;5014845;28;102925;-47
2021/12/17 09:37:28;;;;;;;4.10;3.80;;;;;;;23.10;28.28;95518.09;5019467;28;103219;-47
2021/12/17 09:39:54;;;;;;;3.83;3.63;;;;;;;23.09;28.76;95506.66;5019340;28;103173;-47
2021/12/17 09:42:19;;;;;;;3.37;3.17;;;;;;;23.11;28.43;95511.69;5020057;28;102943;-47
2021/12/17 09:44:45;;;;;;;3.40;3.20;;;;;;;23.11;28.64;95501.81;5014889;28;103400;-47
2021/12/17 09:47:10;;;;;;;3.70;3.40;;;;;;;23.11;28.38;95499.16;5018999;28;102938;-47
2021/12/17 09:49:37;;;;;;;3.73;3.50;;;;;;;23.13;28.56;95490.06;4996388;28;103061;-47
2021/12/17 09:52:03;;;;;;;3.73;3.50;;;;;;;23.13;28.28;95484.75;4999417;28;103162;-47
2021/12/17 09:54:28;;;;;;;3.50;3.30;;;;;;;23.11;28.44;95483.16;4999022;28;103453;-48
2021/12/17 09:56:54;;;;;;;3.23;3.03;;;;;;;23.13;28.57;95477.53;4994338;28;102571;-48
2021/12/17 09:59:20;;;;;;;3.33;3.13;;;;;;;23.13;28.26;95476.75;4999569;28;102730;-48
2021/12/17 10:01:46;;;;;;;3.00;2.80;;;;;;;23.13;28.53;95472.19;4999449;28;102738;-48
2021/12/17 10:04:27;;;;;;;3.10;2.83;;;;;;;23.15;28.20;95463.91;4999529;28;103515;-48
2021/12/17 10:07:13;;;;;;;3.23;3.03;;;;;;;23.11;28.15;95453.84;4993946;28;103537;-48
2021/12/17 10:09:46;;;;;;;3.30;3.10;;;;;;;23.13;28.17;95442.09;4998752;28;102625;-48
2021/12/17 10:12:11;;;;;;;3.67;3.37;;;;;;;23.15;28.44;95440.72;4999440;28;103323;-48
2021/12/17 10:14:40;;;;;;;3.87;3.60;;;;;;;23.15;28.60;95437.25;4998362;28;103307;-48
2021/12/17 10:17:13;;;;;;;3.90;3.60;;;;;;;23.13;28.23;95431.44;4997856;28;102663;-48
2021/12/17 10:19:50;;;;;;;3.40;3.20;;;;;;;23.17;28.45;95424.41;4993661;28;102708;-48
2021/12/17 10:22:18;;;;;;;3.57;3.27;;;;;;;23.16;28.55;95423.63;4998836;28;102638;-48
2021/12/17 10:24:57;;;;;;;3.00;2.80;;;;;;;23.15;28.04;95406.06;4998583;28;103316;-48
2021/12/17 10:27:28;;;;;;;3.27;3.07;;;;;;;23.16;28.62;95394.31;4999063;28;102826;-48
2021/12/17 10:29:55;;;;;;;3.10;2.90;;;;;;;23.18;28.50;95402.00;4992985;28;103158;-48
2021/12/17 10:32:24;;;;;;;3.20;3.00;;;;;;;23.12;28.10;95390.66;4998770;28;102885;-48
2021/12/17 10:35:12;;;;;;;3.20;3.00;;;;;;;23.17;28.24;95403.09;4998706;28;102921;-48
2021/12/17 10:37:42;;;;;;;3.47;3.17;;;;;;;23.17;28.54;95405.75;4998121;28;103257;-47
2021/12/17 10:40:29;;;;;;;3.60;3.30;;;;;;;23.16;28.59;95404.19;4992625;28;103211;-47
2021/12/17 10:43:05;;;;;;;3.87;3.60;;;;;;;23.16;28.10;95385.53;4998385;28;102736;-47
2021/12/17 10:45:38;;;;;;;3.50;3.30;;;;;;;23.16;28.21;95369.53;4997536;28;102687;-47
2021/12/17 10:51:31;;;;;;;3.33;3.10;;;;;;;23.20;28.58;95359.88;5009702;28;102953;-47
2021/12/17 10:54:05;;;;;;;3.50;3.30;;;;;;;23.21;28.16;95356.13;5018896;28;102718;-47
2021/12/17 10:56:33;;;;;;;3.40;3.20;;;;;;;23.23;28.05;95369.94;5018309;28;103217;-47
2021/12/17 10:59:06;;;;;;;3.10;2.90;;;;;;;23.23;28.21;95376.06;5018780;28;104636;-47
2021/12/17 11:01:44;;;;;;;3.40;3.20;;;;;;;23.23;28.38;95380.59;5017865;28;102939;-47
2021/12/17 11:04:13;;;;;;;3.30;3.10;;;;;;;23.21;28.57;95377.44;5016471;28;102784;-47
2021/12/17 11:06:45;;;;;;;3.37;3.17;;;;;;;23.21;28.43;95382.78;5017995;28;102911;-48
2021/12/17 11:09:10;;;;;;;3.83;3.60;;;;;;;23.18;28.17;95378.00;5017855;28;102819;-48
2021/12/17 11:11:41;;;;;;;3.40;3.20;;;;;;;23.20;28.25;95375.88;5017747;28;102609;-48
2021/12/17 11:14:07;;;;;;;3.07;2.77;;;;;;;23.20;28.33;95375.88;5013710;28;102949;-48
2021/12/17 11:16:36;;;;;;;3.80;3.53;;;;;;;23.19;28.43;95371.63;5018165;28;102918;-47
2021/12/17 11:19:02;;;;;;;3.43;3.23;;;;;;;23.17;28.60;95361.22;5018204;28;103253;-47
2021/12/17 11:21:28;;;;;;;3.20;3.00;;;;;;;23.18;28.68;95346.84;5018433;28;103205;-47
2021/12/17 11:23:53;;;;;;;3.30;3.10;;;;;;;23.18;28.20;95352.19;5013589;28;103175;-48
2021/12/17 11:26:20;;;;;;;3.30;3.10;;;;;;;23.18;28.16;95346.03;5017722;28;102752;-48
2021/12/17 11:28:46;;;;;;;3.20;3.00;;;;;;;23.19;28.28;95342.31;5018425;28;103158;-48
2021/12/17 11:31:12;;;;;;;3.10;2.90;;;;;;;23.19;28.40;95342.31;5017655;28;103531;-48
2021/12/17 11:33:37;;;;;;;3.10;2.90;;;;;;;23.21;28.22;95332.91;5000216;28;103497;-48
2021/12/17 11:36:04;;;;;;;3.80;3.50;;;;;;;23.21;28.22;95337.44;5013235;28;103276;-48
2021/12/17 11:38:57;;;;;;;3.30;3.10;;;;;;;23.20;28.71;95331.34;5017548;28;102736;-48
2021/12/17 11:41:36;;;;;;;2.87;2.67;;;;;;;23.21;28.40;95332.13;5018302;28;102795;-48
2021/12/17 11:44:04;;;;;;;3.00;2.80;;;;;;;23.20;28.51;95326.00;5018301;28;103214;-48
2021/12/17 11:46:33;;;;;;;3.27;3.00;;;;;;;23.20;28.56;95325.22;5012481;28;103147;-48
2021/12/17 11:49:03;;;;;;;2.73;2.53;;;;;;;23.20;28.40;95309.22;5018105;28;103338;-48
2021/12/17 11:51:32;;;;;;;2.90;2.70;;;;;;;23.20;28.58;95304.69;4998086;28;102774;-48
2021/12/17 11:54:05;;;;;;;3.53;3.30;;;;;;;23.19;28.37;95303.09;4999630;28;103303;-48
2021/12/17 11:57:03;;;;;;;2.90;2.70;;;;;;;23.20;28.72;95306.56;4999981;28;102746;-48
2021/12/17 11:59:31;;;;;;;2.77;2.57;;;;;;;23.21;28.35;95298.25;4998829;28;102787;-48
2021/12/17 12:02:22;;;;;;;3.10;2.90;;;;;;;23.20;28.46;95286.03;4999978;28;102881;-48
2021/12/17 12:05:04;;;;;;;3.43;3.23;;;;;;;23.18;28.58;95280.19;5000470;28;102882;-48
2021/12/17 12:07:29;;;;;;;2.47;2.37;;;;;;;23.20;28.08;95277.25;5000336;28;102685;-48
2021/12/17 12:09:59;;;;;;;2.93;2.73;;;;;;;23.20;28.32;95274.56;4995615;28;103413;-48
2021/12/17 12:12:34;;;;;;;3.10;2.90;;;;;;;23.20;28.41;95264.69;5000880;28;102894;-47
2021/12/17 12:15:17;;;;;;;3.07;2.87;;;;;;;23.19;28.48;95273.78;5000041;28;102848;-47
2021/12/17 12:18:02;;;;;;;3.17;2.97;;;;;;;23.20;28.38;95275.34;5000387;28;102995;-47
2021/12/17 12:20:52;;;;;;;3.03;2.83;;;;;;;23.19;28.43;95262.34;4996127;28;103425;-47
2021/12/17 12:23:29;;;;;;;3.20;3.00;;;;;;;23.19;28.23;95263.13;4999559;28;102811;-47
2021/12/17 12:26:01;;;;;;;3.20;3.00;;;;;;;23.19;28.71;95252.47;5000945;28;102792;-47
2021/12/17 12:28:47;;;;;;;3.07;2.83;;;;;;;23.18;28.59;95244.75;5000690;28;102954;-47
2021/12/17 12:31:30;;;;;;;3.10;2.90;;;;;;;23.20;28.36;95247.91;4994485;28;102717;-47
2021/12/17 12:34:05;;;;;;;3.37;3.17;;;;;;;23.19;28.60;95249.78;4999144;28;102897;-47
2021/12/17 12:37:04;;;;;;;3.00;2.80;;;;;;;23.20;28.41;95238.03;5000090;28;103462;-47
2021/12/17 12:39:37;;;;;;;3.10;2.90;;;;;;;23.17;28.56;95219.97;4999757;28;102822;-47
2021/12/17 12:42:21;;;;;;;2.80;2.60;;;;;;;23.20;28.31;95229.25;4994579;28;104522;-47
2021/12/17 12:44:47;;;;;;;3.27;3.07;;;;;;;23.20;28.88;95224.72;5000152;28;103660;-47
2021/12/17 12:47:24;;;;;;;2.90;2.70;;;;;;;23.19;28.59;95225.03;5000804;28;103391;-47
2021/12/17 12:50:03;;;;;;;3.27;3.07;;;;;;;23.09;28.31;95218.03;5004856;28;102974;-47
2021/12/17 12:52:32;;;;;;;2.93;2.73;;;;;;;23.21;28.50;95228.16;4996203;28;103718;-47
2021/12/17 12:55:26;;;;;;;3.20;3.00;;;;;;;23.20;28.67;95232.72;5019288;28;103058;-47
2021/12/17 12:57:58;;;;;;;2.70;2.50;;;;;;;23.20;28.82;95232.72;5018305;28;102793;-47
2021/12/17 13:00:25;;;;;;;3.33;3.13;;;;;;;23.21;28.78;95236.16;5019617;28;102672;-47
2021/12/17 13:02:57;;;;;;;3.23;3.03;;;;;;;23.20;28.79;95239.91;5017342;28;102929;-47
2021/12/17 13:05:24;;;;;;;3.40;3.20;;;;;;;23.21;28.34;95233.50;5019033;28;102869;-47
2021/12/17 13:07:53;;;;;;;3.37;3.00;;;;;;;23.20;28.45;95218.59;5020531;28;102934;-47
2021/12/17 13:10:22;;;;;;;3.20;3.00;;;;;;;23.21;28.50;95214.84;5019942;28;102684;-47
2021/12/17 13:13:10;;;;;;;3.30;3.10;;;;;;;23.21;28.51;95230.84;5001277;28;102936;-47
2021/12/17 13:15:43;;;;;;;3.47;3.27;;;;;;;23.18;28.60;95212.75;5013122;28;102991;-47
2021/12/17 13:21:04;;;;;;;3.20;3.00;;;;;;;23.21;28.50;95230.84;5019233;28;102719;-47
2021/12/17 13:23:36;;;;;;;3.00;2.80;;;;;;;23.21;28.87;95233.50;5019426;28;103402;-47
2021/12/17 13:26:07;;;;;;;3.10;2.90;;;;;;;23.21;28.53;95226.28;4996633;28;103658;-47
2021/12/17 13:28:59;;;;;;;3.30;3.10;;;;;;;23.21;28.61;95220.16;5019929;28;102764;-47
2021/12/17 13:31:51;;;;;;;3.00;2.80;;;;;;;23.23;28.51;95231.31;5019773;28;102885;-47
2021/12/17 13:34:30;;;;;;;2.90;2.70;;;;;;;23.23;28.44;95236.66;5016292;28;103340;-47
2021/12/17 13:37:03;;;;;;;2.97;2.77;;;;;;;23.22;28.77;95225.19;5014327;28;103475;-47
2021/12/17 13:39:38;;;;;;;3.00;2.80;;;;;;;23.22;28.25;95229.75;5019299;28;102832;-47
2021/12/17 13:42:05;;;;;;;3.17;2.97;;;;;;;23.20;28.74;95216.72;5019176;28;103629;-47
2021/12/17 13:44:43;;;;;;;2.83;2.63;;;;;;;23.21;28.71;95217.50;5017915;28;102734;-47
2021/12/17 13:47:18;;;;;;;3.07;2.87;;;;;;;23.20;28.71;95238.03;4995326;28;102749;-47
2021/12/17 13:49:49;;;;;;;2.80;2.60;;;;;;;23.21;28.17;95218.28;5014347;28;102740;-47
2021/12/17 13:52:15;;;;;;;2.87;2.67;;;;;;;23.20;28.39;95221.25;4999358;28;102809;-47
2021/12/17 13:54:44;;;;;;;2.83;2.63;;;;;;;23.21;28.74;95222.84;4999227;28;102931;-47
2021/12/17 13:57:14;;;;;;;2.70;2.50;;;;;;;23.20;28.20;95202.59;4998501;28;102717;-47
2021/12/17 13:59:40;;;;;;;3.33;3.13;;;;;;;23.21;28.50;95191.63;4993795;28;102890;-47
2021/12/17 14:02:20;;;;;;;2.43;2.23;;;;;;;23.21;28.41;95202.28;4999264;28;103289;-47
2021/12/17 14:05:06;;;;;;;2.83;2.60;;;;;;;23.22;28.41;95192.41;4998461;28;103873;-47
2021/12/17 14:07:33;;;;;;;2.73;2.53;;;;;;;23.22;28.69;95192.41;4998461;28;102987;-47
2021/12/17 14:10:03;;;;;;;2.83;2.63;;;;;;;23.22;28.27;95195.09;4994372;28;102872;-47
2021/12/17 14:12:39;;;;;;;2.43;2.33;;;;;;;23.23;28.75;95194.00;4999203;28;104008;-47
2021/12/17 14:15:13;;;;;;;2.63;2.43;;;;;;;23.21;28.58;95206.84;4997630;28;103637;-47
2021/12/17 14:17:44;;;;;;;2.60;2.40;;;;;;;23.21;28.14;95210.28;4998688;28;102660;-47
2021/12/17 14:20:16;;;;;;;3.00;2.80;;;;;;;23.20;28.75;95216.72;4994082;28;103488;-47
2021/12/17 14:22:53;;;;;;;3.23;3.03;;;;;;;23.19;28.42;95219.69;4998684;28;102953;-47
2021/12/17 14:25:42;;;;;;;2.80;2.60;;;;;;;23.13;28.09;95215.53;4999240;28;102745;-47
2021/12/17 14:28:08;;;;;;;2.97;2.77;;;;;;;23.21;28.32;95230.84;4997723;28;102669;-47
2021/12/17 14:30:36;;;;;;;2.30;2.20;;;;;;;23.20;28.34;95243.38;4998979;28;102808;-47